Time;durP1;ratioP1;P1;durP2;ratioP2;P2;SDS_P1;SDS_P2;PMS_P1;PMS_P2;Temp;Humidity;BMP_temperature;BMP_pressure;BME280_temperature;BME280_humidity;BME280_pressure;Samples;Min_cycle;Max_cycle;Signal;HPM_P1;HPM_P2
2023/04/07 00:01:16;;;;;;;42.55;30.65;;;7.60;99.90;;;;;;5014324;28;20041;-38
2023/04/07 00:03:43;;;;;;;41.58;30.20;;;7.60;99.90;;;;;;5011236;28;20108;-38
2023/04/07 00:06:10;;;;;;;40.78;29.35;;;7.60;99.90;;;;;;5012638;28;20049;-38
2023/04/07 00:08:37;;;;;;;43.60;31.13;;;7.70;99.90;;;;;;5031327;28;20049;-38
2023/04/07 00:11:05;;;;;;;41.88;31.35;;;7.70;99.90;;;;;;5030774;28;20119;-37
2023/04/07 00:13:32;;;;;;;44.40;31.98;;;7.70;99.90;;;;;;5031453;28;20198;-37
2023/04/07 00:15:59;;;;;;;46.08;32.58;;;7.70;99.90;;;;;;5012825;28;20053;-38
2023/04/07 00:18:26;;;;;;;40.65;30.58;;;7.70;99.90;;;;;;5029879;28;20038;-38
2023/04/07 00:20:52;;;;;;;42.60;31.10;;;7.70;99.90;;;;;;5013417;28;20054;-38
2023/04/07 00:23:20;;;;;;;42.13;30.70;;;7.70;99.90;;;;;;5013752;28;20084;-38
2023/04/07 00:25:48;;;;;;;45.65;32.25;;;7.70;99.90;;;;;;5013580;28;20155;-37
2023/04/07 00:28:16;;;;;;;41.83;31.88;;;7.70;99.90;;;;;;5029328;28;20049;-38
2023/04/07 00:34:14;;;;;;;40.20;30.50;;;7.70;99.90;;;;;;5030069;28;20061;-38
2023/04/07 00:36:41;;;;;;;47.47;33.40;;;7.70;99.90;;;;;;5025182;28;20052;-37
2023/04/07 00:39:07;;;;;;;41.47;30.77;;;7.70;99.90;;;;;;5013525;28;20045;-38
2023/04/07 00:41:35;;;;;;;41.00;30.45;;;7.70;99.90;;;;;;5030661;28;20052;-38
2023/04/07 00:44:03;;;;;;;43.30;31.83;;;7.70;99.90;;;;;;5012894;28;20045;-37
2023/04/07 00:46:30;;;;;;;42.78;31.98;;;7.70;99.90;;;;;;5012016;28;20061;-38
2023/04/07 00:48:56;;;;;;;38.17;29.05;;;7.70;99.90;;;;;;5035880;28;20045;-37
2023/04/07 00:51:23;;;;;;;42.78;33.25;;;7.70;99.90;;;;;;5035465;28;20129;-37
2023/04/07 00:53:50;;;;;;;46.65;33.17;;;7.70;99.90;;;;;;5036356;28;20489;-38
2023/04/07 00:56:17;;;;;;;43.13;32.35;;;7.70;99.90;;;;;;5020168;28;20426;-37
2023/04/07 00:58:43;;;;;;;34.40;27.48;;;7.70;99.90;;;;;;5036809;28;20057;-37
2023/04/07 01:01:13;;;;;;;44.75;32.60;;;7.70;99.90;;;;;;5019622;28;20076;-38
2023/04/07 01:03:44;;;;;;;44.92;32.40;;;7.70;99.90;;;;;;5018694;28;20463;-37
2023/04/07 01:06:11;;;;;;;45.47;32.70;;;7.70;99.90;;;;;;5034526;28;20056;-38
2023/04/07 01:08:42;;;;;;;41.58;31.45;;;7.70;99.90;;;;;;5018496;28;20430;-38
2023/04/07 01:11:11;;;;;;;43.78;32.78;;;7.70;99.90;;;;;;5037921;28;20053;-38
2023/04/07 01:13:40;;;;;;;43.45;31.50;;;7.70;99.90;;;;;;5033489;28;20099;-38
2023/04/07 01:16:13;;;;;;;45.00;33.40;;;7.70;99.90;;;;;;5036177;28;20501;-38
2023/04/07 01:18:41;;;;;;;40.33;30.63;;;7.70;99.90;;;;;;5036164;28;20141;-38
2023/04/07 01:21:11;;;;;;;44.63;33.50;;;7.70;99.90;;;;;;5036811;28;20179;-37
2023/04/07 01:23:48;;;;;;;44.03;32.97;;;7.70;99.90;;;;;;5018793;28;20398;-38
2023/04/07 01:26:20;;;;;;;43.90;32.63;;;7.70;99.90;;;;;;5004169;28;20064;-37
2023/04/07 01:29:05;;;;;;;46.08;32.00;;;7.70;99.90;;;;;;5036223;28;20417;-37
2023/04/07 01:31:34;;;;;;;46.45;32.17;;;7.70;99.90;;;;;;5016998;28;20045;-37
2023/04/07 01:34:01;;;;;;;47.08;32.03;;;7.70;99.90;;;;;;5019284;28;20502;-37
2023/04/07 01:36:28;;;;;;;37.55;29.20;;;7.70;99.90;;;;;;5036601;28;20076;-37
2023/04/07 01:38:55;;;;;;;42.95;32.75;;;7.70;99.90;;;;;;5017785;28;20103;-37
2023/04/07 01:41:22;;;;;;;39.80;30.55;;;7.70;99.90;;;;;;5017760;28;20058;-37
2023/04/07 01:43:48;;;;;;;41.35;31.58;;;7.70;99.90;;;;;;5015048;28;20072;-37
2023/04/07 01:46:15;;;;;;;42.78;31.73;;;7.70;99.90;;;;;;5036017;28;20493;-37
2023/04/07 01:48:43;;;;;;;40.67;30.95;;;7.70;99.90;;;;;;5035454;28;20050;-37
2023/04/07 01:51:16;;;;;;;42.40;31.30;;;7.70;99.90;;;;;;5018798;28;20076;-37
2023/04/07 01:53:42;;;;;;;45.33;32.15;;;7.70;99.90;;;;;;5019818;28;20558;-37
2023/04/07 01:56:10;;;;;;;42.03;31.05;;;7.70;99.90;;;;;;5035876;28;20452;-37
2023/04/07 01:58:36;;;;;;;36.88;28.73;;;7.70;99.90;;;;;;5034438;28;20057;-38
2023/04/07 02:01:03;;;;;;;39.17;30.35;;;7.70;99.90;;;;;;5015052;28;20543;-37
2023/04/07 02:03:36;;;;;;;34.85;28.25;;;7.70;99.90;;;;;;5033545;28;20405;-37
2023/04/07 02:06:07;;;;;;;39.78;30.27;;;7.70;99.90;;;;;;5033794;28;20092;-37
2023/04/07 02:08:33;;;;;;;33.58;27.55;;;7.70;99.90;;;;;;5015956;28;20056;-37
2023/04/07 02:11:02;;;;;;;41.80;30.35;;;7.70;99.90;;;;;;5031627;28;20179;-37
2023/04/07 02:13:29;;;;;;;36.53;28.38;;;7.70;99.90;;;;;;5032623;28;20100;-36
2023/04/07 02:15:56;;;;;;;37.60;29.73;;;7.70;99.90;;;;;;5032560;28;20558;-38
2023/04/07 02:18:23;;;;;;;37.65;28.92;;;7.70;99.90;;;;;;5032724;28;20410;-37
2023/04/07 02:20:50;;;;;;;39.20;30.13;;;7.70;99.90;;;;;;5015430;28;20061;-38
2023/04/07 02:23:18;;;;;;;38.30;30.05;;;7.70;99.90;;;;;;5015419;28;20441;-38
2023/04/07 02:25:45;;;;;;;39.95;29.48;;;7.70;99.90;;;;;;5032685;28;20445;-38
2023/04/07 02:28:11;;;;;;;38.95;29.63;;;7.70;99.90;;;;;;5013955;28;20050;-37
2023/04/07 02:30:38;;;;;;;38.38;29.20;;;7.70;99.90;;;;;;5014842;28;20053;-38
2023/04/07 02:33:05;;;;;;;36.58;28.10;;;7.80;99.90;;;;;;5031634;28;20049;-38
2023/04/07 02:35:32;;;;;;;34.42;27.42;;;7.70;99.90;;;;;;5033001;28;20056;-37
2023/04/07 02:37:59;;;;;;;33.42;27.25;;;7.80;99.90;;;;;;5032608;28;20124;-37
2023/04/07 02:40:27;;;;;;;32.15;26.80;;;7.70;99.90;;;;;;5015435;28;20504;-37
2023/04/07 02:42:54;;;;;;;34.22;26.17;;;7.80;99.90;;;;;;5033119;28;20092;-37
2023/04/07 02:45:21;;;;;;;34.70;27.85;;;7.70;99.90;;;;;;5013605;28;20077;-38
2023/04/07 02:47:47;;;;;;;33.55;27.05;;;7.70;99.90;;;;;;5015453;28;20057;-37
2023/04/07 02:50:14;;;;;;;33.88;26.88;;;7.80;99.90;;;;;;5014242;28;20053;-37
2023/04/07 02:52:41;;;;;;;33.95;26.08;;;7.70;99.90;;;;;;5015762;28;20053;-37
2023/04/07 02:55:09;;;;;;;33.35;26.48;;;7.70;99.90;;;;;;5032739;28;20061;-37
2023/04/07 02:57:37;;;;;;;27.67;23.52;;;7.70;99.90;;;;;;5013377;28;20093;-37
2023/04/07 03:00:04;;;;;;;27.73;23.58;;;7.80;99.90;;;;;;5032242;28;20037;-37
2023/04/07 03:02:31;;;;;;;30.63;25.45;;;7.80;99.90;;;;;;5015363;28;20092;-37
2023/04/07 03:04:58;;;;;;;29.42;24.30;;;7.70;99.90;;;;;;5032569;28;20501;-37
2023/04/07 03:07:25;;;;;;;30.50;24.50;;;7.70;99.90;;;;;;5013632;28;20416;-38
2023/04/07 03:09:51;;;;;;;32.15;25.10;;;7.70;99.90;;;;;;5014185;28;20080;-37
2023/04/07 03:12:18;;;;;;;29.65;23.60;;;7.70;99.90;;;;;;5013415;28;20045;-37
2023/04/07 03:14:46;;;;;;;31.13;25.08;;;7.80;99.90;;;;;;5033161;28;20150;-38
2023/04/07 03:17:13;;;;;;;33.10;25.67;;;7.70;99.90;;;;;;5012938;28;20054;-37
2023/04/07 03:19:40;;;;;;;29.35;23.73;;;7.80;99.90;;;;;;5014494;28;20076;-37
2023/04/07 03:22:07;;;;;;;30.48;24.13;;;7.80;99.90;;;;;;5032414;28;20045;-37
2023/04/07 03:24:33;;;;;;;26.70;22.88;;;7.80;99.90;;;;;;5013710;28;20049;-37
2023/04/07 03:27:00;;;;;;;29.02;24.60;;;7.70;99.90;;;;;;5014482;28;20057;-38
2023/04/07 03:29:27;;;;;;;29.15;24.02;;;7.80;99.90;;;;;;5031819;28;20053;-38
2023/04/07 03:31:55;;;;;;;29.58;23.92;;;7.80;99.90;;;;;;5014457;28;20049;-38
2023/04/07 03:34:22;;;;;;;28.80;24.88;;;7.80;99.90;;;;;;5031615;28;20056;-37
2023/04/07 03:36:49;;;;;;;30.15;24.73;;;7.80;99.90;;;;;;5030500;28;20077;-37
2023/04/07 03:39:16;;;;;;;29.40;23.98;;;7.80;99.90;;;;;;5031538;28;20049;-38
2023/04/07 03:41:42;;;;;;;30.40;24.67;;;7.80;99.90;;;;;;5013349;28;20049;-38
2023/04/07 03:44:09;;;;;;;31.10;25.42;;;7.70;99.90;;;;;;5031840;28;20516;-37
2023/04/07 03:46:36;;;;;;;25.25;22.35;;;7.70;99.90;;;;;;5013748;28;20132;-37
2023/04/07 03:49:05;;;;;;;31.17;25.13;;;7.80;99.90;;;;;;5030672;28;20053;-37
2023/04/07 03:51:32;;;;;;;29.10;23.92;;;7.70;99.90;;;;;;5031184;28;20053;-37
2023/04/07 03:53:59;;;;;;;29.63;25.08;;;7.80;99.90;;;;;;5030881;28;20068;-38
2023/04/07 03:56:26;;;;;;;29.08;24.48;;;7.70;99.90;;;;;;5013748;28;20053;-38
2023/04/07 03:58:53;;;;;;;33.00;26.13;;;7.70;99.90;;;;;;5000045;28;20132;-38
2023/04/07 04:01:20;;;;;;;32.13;26.50;;;7.70;99.90;;;;;;5031089;28;20077;-37
2023/04/07 04:03:47;;;;;;;30.85;26.30;;;7.80;99.90;;;;;;5013649;28;20498;-37
2023/04/07 04:06:15;;;;;;;31.95;26.15;;;7.70;99.90;;;;;;5030665;28;20393;-38
2023/04/07 04:08:41;;;;;;;32.47;27.23;;;7.70;99.90;;;;;;5013800;28;20095;-38
2023/04/07 04:11:08;;;;;;;32.33;26.75;;;7.70;99.90;;;;;;5028973;28;20467;-39
2023/04/07 04:13:35;;;;;;;34.97;27.98;;;7.80;99.90;;;;;;5031156;28;20103;-38
2023/04/07 04:16:02;;;;;;;35.85;28.17;;;7.80;99.90;;;;;;5013928;28;20049;-38
2023/04/07 04:18:29;;;;;;;31.90;26.73;;;7.70;99.90;;;;;;5012558;28;20096;-38
2023/04/07 04:20:55;;;;;;;;;;;7.70;99.90;;;;;;5012101;28;20147;-38
2023/04/07 04:23:23;;;;;;;;;;;7.70;99.90;;;;;;5030521;28;20068;-38
2023/04/07 04:25:50;;;;;;;;;;;7.60;99.90;;;;;;5014197;28;20024;-38
2023/04/07 04:28:17;;;;;;;;;;;7.60;99.90;;;;;;5013392;28;19955;-37
2023/04/07 04:30:43;;;;;;;;;;;7.60;99.90;;;;;;5031409;28;19937;-37
2023/04/07 04:33:10;;;;;;;;;;;7.60;99.90;;;;;;5031624;28;19992;-38
2023/04/07 04:35:37;;;;;;;;;;;7.60;99.90;;;;;;5030247;28;19953;-39
2023/04/07 04:38:03;;;;;;;;;;;7.50;99.90;;;;;;5031047;28;20083;-38
2023/04/07 04:40:31;;;;;;;;;;;7.50;99.90;;;;;;5031015;28;20038;-38
2023/04/07 04:42:58;;;;;;;;;;;7.60;99.90;;;;;;5031205;28;20028;-37
2023/04/07 04:45:25;;;;;;;;;;;7.50;99.90;;;;;;5013203;28;20314;-38
2023/04/07 04:47:51;;;;;;;;;;;7.50;99.90;;;;;;5032197;28;19963;-38
2023/04/07 04:50:19;;;;;;;;;;;7.50;99.90;;;;;;5013567;28;20034;-38
2023/04/07 04:52:46;;;;;;;;;;;7.50;99.90;;;;;;5030620;28;19945;-38
2023/04/07 04:55:12;;;;;;;;;;;7.50;99.90;;;;;;5013289;28;19947;-38
2023/04/07 04:57:40;;;;;;;;;;;7.50;99.90;;;;;;5029719;28;19954;-38
2023/04/07 05:00:08;;;;;;;;;;;7.50;99.90;;;;;;5012732;28;20031;-38
2023/04/07 05:02:35;;;;;;;;;;;7.50;99.90;;;;;;5010592;28;20408;-38
2023/04/07 05:05:02;;;;;;;;;;;7.50;99.90;;;;;;5013664;28;19948;-38
2023/04/07 05:07:29;;;;;;;;;;;7.50;99.90;;;;;;5029429;28;20319;-38
2023/04/07 05:09:56;;;;;;;;;;;7.50;99.90;;;;;;5011629;28;19993;-38
2023/04/07 05:12:22;;;;;;;;;;;7.50;99.90;;;;;;5014252;28;19953;-38
2023/04/07 05:14:50;;;;;;;;;;;7.50;99.90;;;;;;5025342;28;20336;-38
2023/04/07 05:17:17;;;;;;;;;;;7.50;99.90;;;;;;5009813;28;20051;-38
2023/04/07 05:19:43;;;;;;;;;;;7.40;99.90;;;;;;5027381;28;19982;-38
2023/04/07 05:22:10;;;;;;;;;;;7.50;99.90;;;;;;5017898;28;20293;-39
2023/04/07 05:24:37;;;;;;;;;;;7.40;99.90;;;;;;5030783;28;19948;-38
2023/04/07 05:27:04;;;;;;;;;;;7.40;99.90;;;;;;5029378;28;20029;-39
2023/04/07 05:29:30;;;;;;;;;;;7.40;99.90;;;;;;5012822;28;20005;-38
2023/04/07 05:32:00;;;;;;;;;;;7.40;99.90;;;;;;5029670;28;20060;-39
2023/04/07 05:34:26;;;;;;;;;;;7.40;99.90;;;;;;5030805;28;19969;-39
2023/04/07 05:36:53;;;;;;;;;;;7.40;99.90;;;;;;5033813;28;19976;-39
2023/04/07 05:39:20;;;;;;;;;;;7.40;99.90;;;;;;5030368;28;19991;-38
2023/04/07 05:41:46;;;;;;;;;;;7.40;99.90;;;;;;5009456;28;20056;-38
2023/04/07 05:44:13;;;;;;;;;;;7.40;99.90;;;;;;5030169;28;19995;-38
2023/04/07 05:46:40;;;;;;;;;;;7.40;99.90;;;;;;5009749;28;19977;-37
2023/04/07 05:49:08;;;;;;;;;;;7.40;99.90;;;;;;5009534;28;20021;-38
2023/04/07 05:51:34;;;;;;;;;;;7.40;99.90;;;;;;5013104;28;19950;-38
2023/04/07 05:54:01;;;;;;;;;;;7.40;99.90;;;;;;5027259;28;20001;-39
2023/04/07 05:56:28;;;;;;;;;;;7.40;99.90;;;;;;5014081;28;20163;-39
2023/04/07 05:58:55;;;;;;;;;;;7.40;99.90;;;;;;5014659;28;19944;-39
2023/04/07 06:01:22;;;;;;;;;;;7.40;99.90;;;;;;5032059;28;19971;-40
2023/04/07 06:03:49;;;;;;;;;;;7.40;99.90;;;;;;5030219;28;20036;-39
2023/04/07 06:06:17;;;;;;;;;;;7.40;99.90;;;;;;5013809;28;20391;-39
2023/04/07 06:08:43;;;;;;;;;;;7.40;99.90;;;;;;5005316;28;19959;-39
2023/04/07 06:11:10;;;;;;;;;;;7.40;99.90;;;;;;5020018;28;20429;-38
2023/04/07 06:13:37;;;;;;;;;;;7.40;99.90;;;;;;5020266;28;19950;-39
2023/04/07 06:16:03;;;;;;;;;;;7.40;99.90;;;;;;5032416;28;19956;-39
2023/04/07 06:18:30;;;;;;;;;;;7.40;99.90;;;;;;5015028;28;19955;-39
2023/04/07 06:20:57;;;;;;;;;;;7.40;99.90;;;;;;5013775;28;20041;-39
2023/04/07 06:23:25;;;;;;;;;;;7.50;99.90;;;;;;5032143;28;20050;-39
2023/04/07 06:25:52;;;;;;;;;;;7.40;99.90;;;;;;5031830;28;19951;-39
2023/04/07 06:28:18;;;;;;;;;;;7.40;99.90;;;;;;5014253;28;20426;-39
2023/04/07 06:30:45;;;;;;;;;;;7.40;99.90;;;;;;5030842;28;20294;-39
2023/04/07 06:33:11;;;;;;;;;;;7.50;99.90;;;;;;5013996;28;19996;-42
2023/04/07 06:35:39;;;;;;;;;;;7.40;99.90;;;;;;5013092;28;19953;-39
2023/04/07 06:38:06;;;;;;;;;;;7.50;99.90;;;;;;5013779;28;20411;-39
2023/04/07 06:40:34;;;;;;;;;;;7.50;99.90;;;;;;5032270;28;19955;-39
2023/04/07 06:43:01;;;;;;;;;;;7.50;99.90;;;;;;5014218;28;20036;-39
2023/04/07 06:45:28;;;;;;;;;;;7.50;99.90;;;;;;5013182;28;19950;-39
2023/04/07 06:47:54;;;;;;;;;;;7.50;99.90;;;;;;5013406;28;20013;-39
2023/04/07 06:50:21;;;;;;;;;;;7.50;99.90;;;;;;5032633;28;20313;-39
2023/04/07 06:52:47;;;;;;;;;;;7.60;99.90;;;;;;5031238;28;19955;-40
2023/04/07 06:55:14;;;;;;;;;;;7.60;99.90;;;;;;5029227;28;20399;-41
2023/04/07 06:57:42;;;;;;;;;;;7.60;99.90;;;;;;5013461;28;20029;-41
2023/04/07 07:00:09;;;;;;;;;;;7.70;99.90;;;;;;5013090;28;19996;-39
2023/04/07 07:02:36;;;;;;;;;;;7.70;99.90;;;;;;5011777;28;19952;-40
2023/04/07 07:05:03;;;;;;;;;;;7.70;99.90;;;;;;5030936;28;20019;-39
2023/04/07 07:07:30;;;;;;;;;;;7.80;99.90;;;;;;5013808;28;19950;-40
2023/04/07 07:09:56;;;;;;;;;;;7.80;99.90;;;;;;5030056;28;20449;-39
2023/04/07 07:12:26;;;;;;;;;;;7.80;99.90;;;;;;5012630;28;20047;-40
2023/04/07 07:14:54;;;;;;;;;;;7.90;99.90;;;;;;5031208;28;20379;-38
2023/04/07 07:17:21;;;;;;;;;;;7.90;99.90;;;;;;5019057;28;20002;-39
2023/04/07 07:19:48;;;;;;;;;;;7.90;99.90;;;;;;5030916;28;19951;-39
2023/04/07 07:22:15;;;;;;;;;;;7.90;99.90;;;;;;5029537;28;19996;-39
2023/04/07 07:24:41;;;;;;;;;;;7.90;99.90;;;;;;5030742;28;19947;-39
2023/04/07 07:27:08;;;;;;;;;;;7.90;99.90;;;;;;5031028;28;20013;-38
2023/04/07 07:29:35;;;;;;;;;;;8.00;99.90;;;;;;5028933;28;19964;-38
2023/04/07 07:32:03;;;;;;;;;;;8.00;99.90;;;;;;5029891;28;19999;-38
2023/04/07 07:34:30;;;;;;;;;;;8.10;99.90;;;;;;5029737;28;20408;-39
2023/04/07 07:36:56;;;;;;;;;;;8.10;99.90;;;;;;5029932;28;20466;-38
2023/04/07 07:39:23;;;;;;;;;;;8.10;99.90;;;;;;5012778;28;19946;-39
2023/04/07 07:41:50;;;;;;;;;;;8.10;99.90;;;;;;5030232;28;19960;-38
2023/04/07 07:44:18;;;;;;;;;;;8.20;99.90;;;;;;5029959;28;19948;-38
2023/04/07 07:46:45;;;;;;;;;;;8.20;99.90;;;;;;5027699;28;20038;-39
2023/04/07 07:49:13;;;;;;;;;;;8.20;99.90;;;;;;5027776;28;20300;-39
2023/04/07 07:51:40;;;;;;;;;;;8.20;99.90;;;;;;5012611;28;20393;-39
2023/04/07 07:54:08;;;;;;;;;;;8.20;99.90;;;;;;5029872;28;19951;-39
2023/04/07 07:56:35;;;;;;;;;;;8.30;99.90;;;;;;5029796;28;19954;-39
2023/04/07 07:59:01;;;;;;;;;;;8.30;99.90;;;;;;5029161;28;20383;-39
2023/04/07 08:01:28;;;;;;;;;;;8.30;99.90;;;;;;5029510;28;19971;-38
2023/04/07 08:03:55;;;;;;;;;;;8.40;99.90;;;;;;5029482;28;19952;-39
2023/04/07 08:06:23;;;;;;;;;;;8.40;99.90;;;;;;5029750;28;19994;-39
2023/04/07 08:08:50;;;;;;;;;;;8.40;99.90;;;;;;5028068;28;19981;-39
2023/04/07 08:11:16;;;;;;;;;;;8.50;99.90;;;;;;5028212;28;19974;-38
2023/04/07 08:13:44;;;;;;;;;;;8.50;99.90;;;;;;5004930;28;19947;-38
2023/04/07 08:16:10;;;;;;;;;;;8.60;99.90;;;;;;5029486;28;19947;-38
2023/04/07 08:18:37;;;;;;;;;;;8.60;99.90;;;;;;5028674;28;19990;-39
2023/04/07 08:21:04;;;;;;;;;;;8.70;99.90;;;;;;5012750;28;20032;-38
2023/04/07 08:23:32;;;;;;;;;;;8.70;99.90;;;;;;5030259;28;20001;-37
2023/04/07 08:25:59;;;;;;;;;;;8.70;99.90;;;;;;5029958;28;19958;-39
2023/04/07 08:28:25;;;;;;;;;;;8.80;99.90;;;;;;5012140;28;19943;-39
2023/04/07 08:30:52;;;;;;;;;;;8.80;99.90;;;;;;5029399;28;20452;-37
2023/04/07 08:33:19;;;;;;;;;;;8.80;99.90;;;;;;5012626;28;20006;-37
2023/04/07 08:35:46;;;;;;;;;;;8.80;99.90;;;;;;5008472;28;20013;-38
2023/04/07 08:38:12;;;;;;;;;;;8.80;99.90;;;;;;5026169;28;20365;-38
2023/04/07 08:40:41;;;;;;;;;;;8.90;99.90;;;;;;5018886;28;20053;-38
2023/04/07 08:43:08;;;;;;;;;;;8.90;99.90;;;;;;5005802;28;19965;-38
2023/04/07 08:45:36;;;;;;;;;;;8.90;99.90;;;;;;5028446;28;19972;-37
2023/04/07 08:48:03;;;;;;;;;;;9.00;99.90;;;;;;5010381;28;20309;-37
2023/04/07 08:50:29;;;;;;;;;;;9.10;99.90;;;;;;5029500;28;19964;-36
2023/04/07 08:52:56;;;;;;;;;;;9.10;99.90;;;;;;5029588;28;19989;-36
2023/04/07 08:55:24;;;;;;;;;;;9.20;99.90;;;;;;5010832;28;20041;-37
2023/04/07 08:57:52;;;;;;;;;;;9.30;99.90;;;;;;5029884;28;19947;-37
2023/04/07 09:00:19;;;;;;;;;;;9.30;99.90;;;;;;5028658;28;19988;-37
2023/04/07 09:02:47;;;;;;;;;;;9.30;99.90;;;;;;5011821;28;19952;-37
2023/04/07 09:05:14;;;;;;;;;;;9.30;99.90;;;;;;5012651;28;20297;-38
2023/04/07 09:07:42;;;;;;;;;;;9.30;99.90;;;;;;5029612;28;20011;-37
2023/04/07 09:10:08;;;;;;;;;;;9.30;99.90;;;;;;5014850;28;20752;-37
2023/04/07 09:12:35;;;;;;;;;;;9.30;99.90;;;;;;5034461;28;20309;-37
2023/04/07 09:15:03;;;;;;;;;;;9.40;99.90;;;;;;5033228;28;20431;-37
2023/04/07 09:17:30;;;;;;;;;;;9.40;99.90;;;;;;5031770;28;19994;-38
2023/04/07 09:19:56;;;;;;;;;;;9.40;99.90;;;;;;5016031;28;20354;-38
2023/04/07 09:22:36;;;;;;;;;;;9.50;99.90;;;;;;5032626;28;19995;-38
2023/04/07 09:25:09;;;;;;;;;;;9.50;99.90;;;;;;5012955;28;20460;-39
2023/04/07 09:27:36;;;;;;;;;;;9.60;99.90;;;;;;5028795;28;20058;-38
2023/04/07 09:30:11;;;;;;;;;;;9.60;99.90;;;;;;5011417;28;20302;-38
2023/04/07 09:32:38;;;;;;;;;;;9.60;99.90;;;;;;5013029;28;20394;-37
2023/04/07 09:35:05;;;;;;;;;;;9.60;99.90;;;;;;5033005;28;19945;-38
2023/04/07 09:37:32;;;;;;;;;;;9.70;99.90;;;;;;5031905;28;19952;-38
2023/04/07 09:39:59;;;;;;;;;;;9.60;99.90;;;;;;5014671;28;20009;-38
2023/04/07 09:42:29;;;;;;;;;;;9.70;99.90;;;;;;5031305;28;19993;-37
2023/04/07 09:44:56;;;;;;;;;;;9.70;99.90;;;;;;5012546;28;19948;-38
2023/04/07 09:47:28;;;;;;;;;;;9.60;99.90;;;;;;5029146;28;20018;-39
2023/04/07 09:49:55;;;;;;;;;;;9.60;99.90;;;;;;5014496;28;20009;-38
2023/04/07 09:52:22;;;;;;;;;;;9.60;99.90;;;;;;5013521;28;20001;-38
2023/04/07 09:54:49;;;;;;;;;;;9.60;99.90;;;;;;5021345;28;20357;-39
2023/04/07 09:57:17;;;;;;;;;;;9.50;99.90;;;;;;5011918;28;20323;-36
2023/04/07 09:59:44;;;;;;;;;;;9.50;99.90;;;;;;5030130;28;19960;-38
2023/04/07 10:02:11;;;;;;;;;;;9.50;99.90;;;;;;5031749;28;20468;-37
2023/04/07 10:04:40;;;;;;;;;;;9.50;99.90;;;;;;5013749;28;20031;-37
2023/04/07 10:07:06;;;;;;;;;;;9.60;99.90;;;;;;5030009;28;19945;-37
2023/04/07 10:09:33;;;;;;;;;;;9.70;99.90;;;;;;5019355;28;19968;-37
2023/04/07 10:11:59;;;;;;;;;;;9.70;99.90;;;;;;5015219;28;19944;-37
2023/04/07 10:14:26;;;;;;;;;;;9.70;99.90;;;;;;5033722;28;20095;-37
2023/04/07 10:16:53;;;;;;;;;;;9.70;99.90;;;;;;5015399;28;19987;-38
2023/04/07 10:19:20;;;;;;;;;;;9.80;99.90;;;;;;5031945;28;20338;-37
2023/04/07 10:21:49;;;;;;;;;;;9.80;99.90;;;;;;5031153;28;19952;-36
2023/04/07 10:24:21;;;;;;;;;;;9.80;99.90;;;;;;5013055;28;20003;-37
2023/04/07 10:26:48;;;;;;;;;;;9.80;99.90;;;;;;5032369;28;20039;-37
2023/04/07 10:29:15;;;;;;;;;;;9.90;99.90;;;;;;5013440;28;19952;-37
2023/04/07 10:31:42;;;;;;;;;;;9.90;99.90;;;;;;5013235;28;19964;-37
2023/04/07 10:34:08;;;;;;;;;;;9.90;99.90;;;;;;5016540;28;20054;-38
2023/04/07 10:36:35;;;;;;;;;;;9.80;99.90;;;;;;5016028;28;20054;-37
2023/04/07 10:39:22;;;;;;;;;;;9.90;99.90;;;;;;5014892;28;20333;-37
2023/04/07 10:41:50;;;;;;;;;;;9.90;99.90;;;;;;5019800;28;19997;-37
2023/04/07 10:44:36;;;;;;;;;;;9.90;99.90;;;;;;5004855;28;19962;-37
2023/04/07 10:47:04;;;;;;;;;;;10.00;99.90;;;;;;5013572;28;19981;-37
2023/04/07 10:49:32;;;;;;;;;;;10.00;99.90;;;;;;5015522;28;20426;-37
2023/04/07 10:52:15;;;;;;;;;;;10.00;99.90;;;;;;5031665;28;20310;-37
2023/04/07 10:54:43;;;;;;;;;;;10.00;99.90;;;;;;5012988;28;19990;-38
2023/04/07 10:57:13;;;;;;;;;;;10.00;99.90;;;;;;5032644;28;20008;-38
2023/04/07 10:59:57;;;;;;;;;;;9.90;99.90;;;;;;5013110;28;20384;-38
2023/04/07 11:02:31;;;;;;;;;;;10.00;99.90;;;;;;5031627;28;20013;-37
2023/04/07 11:04:57;;;;;;;;;;;10.00;99.90;;;;;;5033586;28;20371;-37
2023/04/07 11:07:39;;;;;;;;;;;10.10;99.90;;;;;;5009052;28;19948;-36
2023/04/07 11:10:11;;;;;;;;;;;10.20;99.90;;;;;;5025982;28;19962;-37
2023/04/07 11:12:37;;;;;;;;;;;10.30;99.90;;;;;;5013981;28;19987;-37
2023/04/07 11:15:16;;;;;;;;;;;10.40;99.90;;;;;;5031835;28;19964;-36
2023/04/07 11:17:43;;;;;;;;;;;10.50;99.90;;;;;;5015054;28;20010;-37
2023/04/07 11:20:10;;;;;;;;;;;10.60;99.90;;;;;;5015286;28;19959;-37
2023/04/07 11:22:37;;;;;;;;;;;10.70;99.90;;;;;;5030122;28;19955;-37
2023/04/07 11:25:22;;;;;;;;;;;10.60;99.90;;;;;;5011943;28;19948;-37
2023/04/07 11:27:48;;;;;;;;;;;10.50;99.90;;;;;;5010524;28;19950;-38
2023/04/07 11:30:16;;;;;;;;;;;10.50;99.90;;;;;;5028232;28;20058;-37
2023/04/07 11:32:46;;;;;;;;;;;10.40;99.90;;;;;;5005663;28;19954;-37
2023/04/07 11:35:15;;;;;;;;;;;10.40;99.90;;;;;;5031470;28;19952;-37
2023/04/07 11:37:41;;;;;;;;;;;10.40;99.90;;;;;;5030536;28;20439;-37
2023/04/07 11:40:08;;;;;;;;;;;10.30;99.90;;;;;;5030525;28;20003;-37
2023/04/07 11:42:37;;;;;;;;;;;10.20;99.90;;;;;;5013296;28;19964;-37
2023/04/07 11:45:04;;;;;;;;;;;10.20;99.90;;;;;;5012773;28;19955;-39
2023/04/07 11:47:34;;;;;;;;;;;10.20;99.90;;;;;;5012204;28;20507;-36
2023/04/07 11:50:01;;;;;;;;;;;10.20;99.90;;;;;;5030329;28;20039;-37
2023/04/07 11:52:28;;;;;;;;;;;10.20;99.90;;;;;;5028662;28;19990;-37
2023/04/07 11:54:54;;;;;;;;;;;10.20;99.90;;;;;;5028701;28;20330;-36
2023/04/07 11:57:24;;;;;;;;;;;10.10;99.90;;;;;;5030005;28;20015;-37
2023/04/07 11:59:52;;;;;;;;;;;10.10;99.90;;;;;;5031511;28;19953;-36
2023/04/07 12:02:30;;;;;;;;;;;10.10;99.90;;;;;;5012313;28;20986;-37
2023/04/07 12:04:57;;;;;;;;;;;10.10;99.90;;;;;;5032789;28;20475;-38
2023/04/07 12:07:24;;;;;;;;;;;10.10;99.90;;;;;;5013839;28;20473;-37
2023/04/07 12:09:50;;;;;;;;;;;10.10;99.90;;;;;;5014900;28;20020;-36
2023/04/07 12:12:25;;;;;;;;;;;10.10;99.90;;;;;;5015249;28;20004;-36
2023/04/07 12:14:53;;;;;;;;;;;10.10;99.90;;;;;;5014132;28;19955;-36
2023/04/07 12:17:20;;;;;;;;;;;10.10;99.90;;;;;;5032321;28;19963;-37
2023/04/07 12:19:46;;;;;;;;;;;10.20;99.90;;;;;;5013235;28;20058;-37
2023/04/07 12:22:13;;;;;;;;;;;10.20;99.90;;;;;;5014722;28;20043;-36
2023/04/07 12:24:40;;;;;;;;;;;10.20;99.90;;;;;;5014840;28;20014;-36
2023/04/07 12:27:07;;;;;;;;;;;10.30;99.90;;;;;;5032328;28;19956;-36
2023/04/07 12:29:33;;;;;;;;;;;10.20;99.90;;;;;;5032356;28;19954;-36
2023/04/07 12:32:01;;;;;;;;;;;10.30;99.90;;;;;;5014292;28;20406;-37
2023/04/07 12:34:28;;;;;;;;;;;10.30;99.90;;;;;;5012403;28;20005;-38
2023/04/07 12:36:55;;;;;;;;;;;10.30;99.90;;;;;;5030425;28;19951;-38
2023/04/07 12:39:21;;;;;;;;;;;10.40;99.90;;;;;;5009131;28;19980;-37
2023/04/07 12:41:51;;;;;;;;;;;10.40;99.90;;;;;;5029935;28;20432;-37
2023/04/07 12:44:18;;;;;;;;;;;10.40;99.90;;;;;;5030295;28;20508;-37
2023/04/07 12:46:45;;;;;;;;;;;10.40;99.90;;;;;;5028888;28;20055;-39
2023/04/07 12:49:13;;;;;;;;;;;10.50;99.90;;;;;;5012629;28;19965;-38
2023/04/07 12:51:40;;;;;;;;;;;10.50;99.90;;;;;;5030155;28;19965;-39
2023/04/07 12:54:06;;;;;;;;;;;10.50;99.90;;;;;;5026950;28;20013;-38
2023/04/07 12:56:33;;;;;;;;;;;10.60;99.90;;;;;;5010830;28;20008;-35
2023/04/07 12:59:00;;;;;;;;;;;10.70;99.90;;;;;;5028961;28;20006;-38
2023/04/07 13:01:26;;;;;;;;;;;10.70;99.90;;;;;;5013097;28;19996;-38
2023/04/07 13:03:53;;;;;;;;;;;10.90;99.90;;;;;;5029359;28;19986;-37
2023/04/07 13:06:21;;;;;;;;;;;11.00;99.90;;;;;;5014914;28;19957;-39
2023/04/07 13:08:47;;;;;;;;;;;11.10;99.90;;;;;;5028755;28;19982;-38
2023/04/07 13:11:14;;;;;;;;;;;11.20;99.90;;;;;;5025709;28;19976;-38
2023/04/07 13:13:41;;;;;;;;;;;11.30;99.90;;;;;;5011587;28;20364;-38
2023/04/07 13:16:07;;;;;;;;;;;11.30;99.90;;;;;;5001664;28;20032;-38
2023/04/07 13:18:34;;;;;;;;;;;11.40;99.90;;;;;;5010988;28;19956;-38
2023/04/07 13:21:00;;;;;;;;;;;11.50;99.90;;;;;;5006057;28;20042;-38
2023/04/07 13:23:28;;;;;;;;;;;11.50;99.90;;;;;;5029743;28;20005;-38
2023/04/07 13:25:55;;;;;;;;;;;11.60;99.90;;;;;;5009185;28;19958;-37
2023/04/07 13:28:22;;;;;;;;;;;11.60;99.90;;;;;;5030316;28;19956;-38
2023/04/07 13:30:48;;;;;;;;;;;11.80;99.90;;;;;;5011531;28;19964;-38
2023/04/07 13:33:15;;;;;;;;;;;11.80;99.90;;;;;;5009608;28;20246;-38
2023/04/07 13:35:42;;;;;;;;;;;11.90;99.90;;;;;;5013804;28;19952;-38
2023/04/07 13:38:09;;;;;;;;;;;12.00;99.90;;;;;;5011397;28;20404;-40
2023/04/07 13:40:37;;;;;;;;;;;12.10;99.90;;;;;;5011973;28;20047;-37
2023/04/07 13:43:03;;;;;;;;;;;12.10;99.90;;;;;;5029454;28;19951;-36
2023/04/07 13:45:30;;;;;;;;;;;12.20;99.90;;;;;;5008965;28;20460;-36
2023/04/07 13:47:56;;;;;;;;;;;12.20;99.90;;;;;;5011931;28;19948;-39
2023/04/07 13:50:23;;;;;;;;;;;12.30;99.90;;;;;;5010249;28;20060;-37
2023/04/07 13:52:50;;;;;;;;;;;12.30;99.90;;;;;;5011318;28;20003;-37
2023/04/07 13:55:19;;;;;;;;;;;12.30;99.90;;;;;;5029484;28;19962;-37